Time;durP1;ratioP1;P1;durP2;ratioP2;P2;SDS_P1;SDS_P2;PMS_P1;PMS_P2;Temp;Humidity;BMP_temperature;BMP_pressure;BME280_temperature;BME280_humidity;BME280_pressure;Samples;Min_cycle;Max_cycle;Signal;HPM_P1;HPM_P2
2021/03/05 00:00:36;;;;;;;59.97;33.05;;;10.60;99.90;;;;;;6213467;23;20092;-77
2021/03/05 00:03:04;;;;;;;56.55;31.85;;;10.60;99.90;;;;;;6213180;23;20051;-77
2021/03/05 00:05:29;;;;;;;55.42;33.38;;;10.60;99.90;;;;;;6213612;23;20492;-76
2021/03/05 00:07:55;;;;;;;61.83;34.53;;;10.70;99.90;;;;;;6211910;23;20076;-77
2021/03/05 00:10:26;;;;;;;51.03;31.40;;;10.70;99.90;;;;;;6213671;23;20082;-76
2021/03/05 00:12:52;;;;;;;61.33;33.95;;;10.80;99.90;;;;;;6214259;23;20000;-76
2021/03/05 00:15:21;;;;;;;52.65;34.22;;;10.80;99.90;;;;;;6187785;23;20043;-76
2021/03/05 00:17:46;;;;;;;54.03;32.00;;;10.90;99.90;;;;;;6213713;23;20534;-78
2021/03/05 00:20:14;;;;;;;51.15;32.85;;;10.90;99.90;;;;;;6213621;23;20001;-77
2021/03/05 00:22:41;;;;;;;56.20;33.30;;;10.90;99.90;;;;;;6212995;23;20035;-77
2021/03/05 00:25:08;;;;;;;57.45;35.47;;;10.90;99.90;;;;;;6213799;23;20005;-77
2021/03/05 00:27:34;;;;;;;51.00;31.33;;;10.90;99.90;;;;;;6214145;23;19996;-77
2021/03/05 00:30:00;;;;;;;53.45;32.17;;;10.90;99.90;;;;;;6213912;23;20009;-77
2021/03/05 00:32:26;;;;;;;46.38;31.13;;;10.90;99.90;;;;;;6215185;23;20001;-77
2021/03/05 00:34:52;;;;;;;54.25;33.80;;;10.80;99.90;;;;;;6215398;23;20327;-77
2021/03/05 00:37:19;;;;;;;53.80;34.17;;;10.80;99.90;;;;;;6215380;23;19997;-77
2021/03/05 00:39:45;;;;;;;56.40;35.60;;;10.70;99.90;;;;;;6214813;23;20020;-77
2021/03/05 00:42:11;;;;;;;53.10;32.40;;;10.80;99.90;;;;;;6215027;23;20015;-77
2021/03/05 00:44:37;;;;;;;50.60;32.38;;;10.80;99.90;;;;;;6215505;23;20102;-77
2021/03/05 00:47:03;;;;;;;49.22;32.35;;;10.80;99.90;;;;;;6215636;23;20066;-77
2021/03/05 00:49:29;;;;;;;51.40;32.55;;;10.90;99.90;;;;;;6214303;23;20024;-77
2021/03/05 00:51:55;;;;;;;55.70;32.85;;;10.90;99.90;;;;;;6215552;23;20067;-77
2021/03/05 00:54:21;;;;;;;49.15;33.05;;;10.90;99.90;;;;;;6189473;23;20341;-77
2021/03/05 00:56:46;;;;;;;50.53;31.52;;;11.00;99.90;;;;;;6214794;23;20059;-77
2021/03/05 00:59:12;;;;;;;54.83;32.75;;;11.00;99.90;;;;;;6215653;23;20421;-77
2021/03/05 01:01:38;;;;;;;59.38;31.88;;;11.00;99.90;;;;;;6215140;23;20001;-77
2021/03/05 01:04:04;;;;;;;52.05;33.20;;;11.00;99.90;;;;;;6215523;23;20009;-77
2021/03/05 01:06:30;;;;;;;51.03;33.13;;;11.00;99.90;;;;;;6215535;23;20074;-77
2021/03/05 01:08:56;;;;;;;47.20;33.00;;;11.00;99.90;;;;;;6188615;23;20024;-77
2021/03/05 01:11:21;;;;;;;47.42;31.58;;;11.00;99.90;;;;;;6215397;23;20051;-77
2021/03/05 01:13:47;;;;;;;45.58;31.77;;;11.00;99.90;;;;;;6215149;23;20032;-77
2021/03/05 01:16:14;;;;;;;46.55;31.58;;;10.90;99.90;;;;;;6214915;23;20025;-76
2021/03/05 01:18:40;;;;;;;46.88;30.27;;;10.90;99.90;;;;;;6188645;23;20012;-76
2021/03/05 01:21:05;;;;;;;52.45;31.08;;;11.00;99.90;;;;;;6214876;23;20299;-76
2021/03/05 01:23:31;;;;;;;53.78;31.67;;;11.00;99.90;;;;;;6216071;23;20034;-76
2021/03/05 01:25:58;;;;;;;48.03;30.95;;;11.00;99.90;;;;;;6215125;23;20004;-77
2021/03/05 01:28:30;;;;;;;50.97;31.98;;;11.00;99.90;;;;;;6127522;23;20429;-77
2021/03/05 01:30:55;;;;;;;49.65;31.00;;;10.90;99.90;;;;;;6215602;23;20027;-76
2021/03/05 01:33:21;;;;;;;59.15;30.40;;;10.90;99.90;;;;;;6215928;23;20422;-76
2021/03/05 01:35:47;;;;;;;50.95;30.50;;;10.90;99.90;;;;;;6215406;23;20005;-75
2021/03/05 01:38:12;;;;;;;52.15;31.55;;;10.90;99.90;;;;;;6214593;23;20579;-75
2021/03/05 01:40:43;;;;;;;44.30;28.75;;;11.00;99.90;;;;;;6215225;23;20008;-75
2021/03/05 01:43:10;;;;;;;52.40;30.88;;;11.00;99.90;;;;;;6214651;23;20008;-76
2021/03/05 01:45:37;;;;;;;42.75;27.95;;;11.10;99.90;;;;;;6214719;23;20000;-76
2021/03/05 01:48:13;;;;;;;45.70;29.60;;;11.10;99.90;;;;;;6215104;23;20009;-75
2021/03/05 01:51:05;;;;;;;41.53;28.80;;;11.00;99.90;;;;;;6215410;23;20004;-76
2021/03/05 01:53:31;;;;;;;45.88;27.33;;;11.00;99.90;;;;;;6213291;23;20000;-76
2021/03/05 01:55:56;;;;;;;48.22;28.17;;;11.00;99.90;;;;;;6214761;23;19997;-77
2021/03/05 01:58:23;;;;;;;40.45;27.38;;;11.00;99.90;;;;;;6187680;23;20008;-77
2021/03/05 02:01:02;;;;;;;44.13;29.30;;;11.00;99.90;;;;;;6215138;23;20008;-75
2021/03/05 02:03:32;;;;;;;44.90;27.95;;;11.00;99.90;;;;;;6214137;23;20004;-75
2021/03/05 02:05:58;;;;;;;38.90;26.15;;;11.00;99.90;;;;;;6214797;23;20005;-76
2021/03/05 02:08:23;;;;;;;43.70;27.88;;;11.00;99.90;;;;;;6214371;23;20012;-76
2021/03/05 02:10:50;;;;;;;43.47;27.23;;;11.00;99.90;;;;;;6214633;23;20005;-76
2021/03/05 02:13:15;;;;;;;47.95;26.65;;;11.00;99.90;;;;;;6188472;23;20023;-76
2021/03/05 02:15:42;;;;;;;42.20;27.80;;;10.90;99.90;;;;;;6214578;23;19997;-75
2021/03/05 02:18:40;;;;;;;43.90;27.05;;;10.90;99.90;;;;;;6214902;23;20005;-76
2021/03/05 02:21:26;;;;;;;44.17;25.63;;;11.00;99.90;;;;;;6187429;23;20322;-76
2021/03/05 02:24:04;;;;;;;36.47;25.05;;;10.90;99.90;;;;;;6214740;23;20086;-76
2021/03/05 02:26:54;;;;;;;39.88;25.50;;;10.90;99.90;;;;;;6214929;23;20050;-75
2021/03/05 02:29:23;;;;;;;45.42;26.17;;;10.90;99.90;;;;;;6215421;23;20016;-75
2021/03/05 02:31:54;;;;;;;39.22;26.52;;;10.90;99.90;;;;;;6214884;23;20000;-77
2021/03/05 02:34:30;;;;;;;37.63;25.08;;;10.80;99.90;;;;;;6213389;23;20032;-75
2021/03/05 02:37:01;;;;;;;42.97;25.73;;;10.80;99.90;;;;;;6213827;23;20059;-77
2021/03/05 02:39:30;;;;;;;41.47;24.75;;;10.80;99.90;;;;;;6213467;23;20005;-75
2021/03/05 02:41:59;;;;;;;39.00;23.15;;;10.80;99.90;;;;;;6213583;23;20059;-76
2021/03/05 02:44:33;;;;;;;37.78;25.02;;;10.80;99.90;;;;;;6214596;23;20016;-76
2021/03/05 02:47:04;;;;;;;47.08;25.65;;;10.80;99.90;;;;;;6213658;23;20087;-76
2021/03/05 02:49:36;;;;;;;37.25;24.83;;;10.80;99.90;;;;;;6212503;23;20012;-77
2021/03/05 02:52:06;;;;;;;41.30;24.42;;;10.70;99.90;;;;;;6212111;23;20024;-75
2021/03/05 02:54:37;;;;;;;43.00;25.52;;;10.80;99.90;;;;;;6212006;23;19997;-76
2021/03/05 02:57:05;;;;;;;37.15;23.17;;;10.80;99.90;;;;;;6212000;23;20008;-76
2021/03/05 02:59:33;;;;;;;41.15;25.27;;;10.80;99.90;;;;;;6211209;23;19997;-76
2021/03/05 03:02:00;;;;;;;35.97;23.92;;;10.80;99.90;;;;;;6212047;23;20330;-75
2021/03/05 03:04:28;;;;;;;46.47;25.52;;;10.80;99.90;;;;;;6211855;23;20009;-75
2021/03/05 03:06:55;;;;;;;40.35;24.40;;;10.80;99.90;;;;;;6213758;23;20004;-74
2021/03/05 03:09:22;;;;;;;45.30;24.48;;;10.80;99.90;;;;;;6213778;23;20008;-74
2021/03/05 03:11:48;;;;;;;48.58;23.85;;;10.80;99.90;;;;;;6214332;23;20008;-75
2021/03/05 03:14:15;;;;;;;42.08;24.15;;;10.80;99.90;;;;;;6214335;23;20008;-76
2021/03/05 03:16:43;;;;;;;41.35;24.52;;;10.80;99.90;;;;;;6214450;23;20078;-75
2021/03/05 03:19:15;;;;;;;37.63;24.02;;;10.80;99.90;;;;;;6214147;23;20438;-76
2021/03/05 03:21:41;;;;;;;36.42;23.08;;;10.80;99.90;;;;;;6213994;23;20048;-75
2021/03/05 03:24:08;;;;;;;39.13;24.13;;;10.90;99.90;;;;;;6214652;23;20008;-76
2021/03/05 03:26:38;;;;;;;45.60;23.25;;;10.90;99.90;;;;;;6214191;23;19997;-76
2021/03/05 03:29:08;;;;;;;44.53;25.13;;;10.90;99.90;;;;;;6214501;23;20035;-75
2021/03/05 03:31:34;;;;;;;41.50;23.50;;;11.00;99.90;;;;;;6214223;23;20323;-76
2021/03/05 03:34:00;;;;;;;37.00;24.52;;;10.90;99.90;;;;;;6214747;23;20076;-76
2021/03/05 03:36:27;;;;;;;40.55;24.98;;;11.00;99.90;;;;;;6213998;23;20032;-75
2021/03/05 03:38:54;;;;;;;42.22;24.63;;;11.00;99.90;;;;;;6214436;23;20004;-75
2021/03/05 03:41:20;;;;;;;43.55;23.90;;;11.00;99.90;;;;;;6214306;23;20012;-75
2021/03/05 03:43:46;;;;;;;36.28;23.83;;;11.00;99.90;;;;;;6214310;23;20013;-75
2021/03/05 03:46:12;;;;;;;37.30;24.75;;;11.00;99.90;;;;;;6214290;23;20480;-76
2021/03/05 03:49:00;;;;;;;37.45;22.83;;;11.10;99.90;;;;;;6214149;23;20493;-74
2021/03/05 03:51:28;;;;;;;37.17;24.40;;;11.00;99.90;;;;;;6187172;23;20005;-75
2021/03/05 03:53:56;;;;;;;38.47;23.58;;;11.10;99.90;;;;;;6187741;23;20000;-75
2021/03/05 03:56:27;;;;;;;43.03;25.25;;;11.00;99.90;;;;;;6212948;23;19996;-75
2021/03/05 03:58:55;;;;;;;39.80;23.17;;;11.10;99.90;;;;;;6213050;23;20004;-74
2021/03/05 04:01:22;;;;;;;36.70;23.73;;;11.00;99.90;;;;;;6185749;23;20079;-75
2021/03/05 04:03:51;;;;;;;46.17;25.42;;;11.10;99.90;;;;;;6211699;23;20005;-75
2021/03/05 04:06:23;;;;;;;45.63;25.75;;;11.10;99.90;;;;;;6211318;23;20059;-74
2021/03/05 04:08:50;;;;;;;;;;;11.10;99.90;;;;;;6212164;23;20035;-75
2021/03/05 04:11:17;;;;;;;40.22;24.27;;;11.10;99.90;;;;;;6210495;23;19903;-75
2021/03/05 04:13:43;;;;;;;41.55;24.20;;;11.10;99.90;;;;;;6185062;23;20008;-76
2021/03/05 04:16:09;;;;;;;35.90;23.92;;;11.10;99.90;;;;;;6212490;23;20019;-76
2021/03/05 04:18:39;;;;;;;38.60;24.55;;;11.10;99.90;;;;;;6212562;23;20445;-75
2021/03/05 04:21:13;;;;;;;41.10;23.73;;;11.10;99.90;;;;;;6213970;23;20055;-75
2021/03/05 04:23:39;;;;;;;43.72;25.17;;;11.20;99.90;;;;;;6214477;23;20009;-76
2021/03/05 04:26:05;;;;;;;39.92;25.08;;;11.20;99.90;;;;;;6214027;23;20430;-75
2021/03/05 04:28:31;;;;;;;42.63;25.25;;;11.20;99.90;;;;;;6213640;23;20008;-75
2021/03/05 04:30:57;;;;;;;45.78;23.98;;;11.20;99.90;;;;;;6213786;23;20009;-76
2021/03/05 04:33:22;;;;;;;47.72;25.60;;;11.20;99.90;;;;;;6214056;23;20004;-76
2021/03/05 04:35:48;;;;;;;51.42;25.60;;;11.20;99.90;;;;;;6213117;23;20431;-75
2021/03/05 04:38:14;;;;;;;36.20;24.42;;;11.20;99.90;;;;;;6212056;23;20139;-76
2021/03/05 04:40:40;;;;;;;43.22;23.73;;;11.20;99.90;;;;;;6212762;23;20001;-76
2021/03/05 04:43:05;;;;;;;39.95;22.30;;;11.20;99.90;;;;;;6186814;23;20016;-74
2021/03/05 04:45:31;;;;;;;41.88;24.95;;;11.30;99.90;;;;;;6214090;23;20019;-76
2021/03/05 04:47:57;;;;;;;40.08;25.45;;;11.30;99.90;;;;;;6213591;23;20007;-75
2021/03/05 04:50:23;;;;;;;39.17;24.55;;;11.20;99.90;;;;;;6214137;23;20000;-74
2021/03/05 04:52:48;;;;;;;47.65;26.15;;;11.20;99.90;;;;;;6214162;23;20005;-74
2021/03/05 04:55:14;;;;;;;37.33;23.98;;;11.20;99.90;;;;;;6213976;23;20414;-74
2021/03/05 04:57:40;;;;;;;47.92;24.85;;;11.20;99.90;;;;;;6213879;23;20001;-76
2021/03/05 05:00:06;;;;;;;42.05;23.48;;;11.20;99.90;;;;;;6213766;23;20481;-76
2021/03/05 05:02:32;;;;;;;49.47;24.52;;;11.20;99.90;;;;;;6213926;23;20004;-75
2021/03/05 05:04:58;;;;;;;40.03;22.83;;;11.30;99.90;;;;;;6213264;23;20400;-75
2021/03/05 05:07:23;;;;;;;39.60;23.10;;;11.30;99.90;;;;;;6213501;23;20011;-75
2021/03/05 05:09:51;;;;;;;41.15;24.83;;;11.30;99.90;;;;;;6213623;23;20012;-75
2021/03/05 05:12:17;;;;;;;42.92;24.13;;;11.20;99.90;;;;;;6213476;23;20001;-75
2021/03/05 05:14:43;;;;;;;36.58;23.55;;;11.20;99.90;;;;;;6214164;23;20001;-75
2021/03/05 05:17:09;;;;;;;43.88;23.98;;;11.20;99.90;;;;;;6187781;23;20008;-74
2021/03/05 05:19:35;;;;;;;36.80;23.77;;;11.20;99.90;;;;;;6188989;23;20008;-74
2021/03/05 05:22:00;;;;;;;52.03;25.40;;;11.30;99.90;;;;;;6215666;23;20001;-75
2021/03/05 05:24:26;;;;;;;42.63;23.00;;;11.30;99.90;;;;;;6189269;23;20494;-74
2021/03/05 05:26:52;;;;;;;36.33;23.35;;;11.30;99.90;;;;;;6215745;23;20039;-75
2021/03/05 05:29:18;;;;;;;40.50;23.17;;;11.30;99.90;;;;;;6188951;23;20013;-75
2021/03/05 05:31:44;;;;;;;41.17;25.08;;;11.30;99.90;;;;;;6214131;23;20004;-74
2021/03/05 05:34:09;;;;;;;35.63;23.50;;;11.30;99.90;;;;;;6215379;23;20015;-74
2021/03/05 05:36:35;;;;;;;39.78;23.80;;;11.30;99.90;;;;;;6215241;23;20004;-74
2021/03/05 05:39:01;;;;;;;46.35;24.42;;;11.30;99.90;;;;;;6214976;23;20047;-75
2021/03/05 05:41:27;;;;;;;41.47;25.23;;;11.30;99.90;;;;;;6213797;23;20330;-76
2021/03/05 05:43:52;;;;;;;47.60;25.30;;;11.30;99.90;;;;;;6214832;23;20050;-74
2021/03/05 05:46:21;;;;;;;38.70;24.52;;;11.30;99.90;;;;;;6214882;23;19996;-75
2021/03/05 05:48:49;;;;;;;41.33;24.13;;;11.20;99.90;;;;;;6215246;23;20040;-76
2021/03/05 05:51:27;;;;;;;40.17;23.42;;;11.30;99.90;;;;;;6214916;23;19996;-74
2021/03/05 05:53:57;;;;;;;41.60;25.42;;;11.30;99.90;;;;;;6215181;23;20000;-75
2021/03/05 05:56:24;;;;;;;39.20;22.80;;;11.30;99.90;;;;;;6215250;23;20012;-74
2021/03/05 05:58:51;;;;;;;39.53;23.40;;;11.20;99.90;;;;;;6188626;23;20303;-75
2021/03/05 06:01:17;;;;;;;39.63;23.60;;;11.30;99.90;;;;;;6214902;23;20027;-76
2021/03/05 06:03:43;;;;;;;40.25;22.83;;;11.20;99.90;;;;;;6188680;23;19996;-75
2021/03/05 06:06:11;;;;;;;42.20;22.83;;;11.30;99.90;;;;;;6213769;23;20007;-77
2021/03/05 06:08:37;;;;;;;40.03;23.55;;;11.20;99.90;;;;;;6213724;23;20004;-77
2021/03/05 06:11:03;;;;;;;55.67;23.25;;;11.20;99.90;;;;;;6213912;23;20015;-77
2021/03/05 06:13:29;;;;;;;36.28;21.92;;;11.20;99.90;;;;;;6215056;23;20037;-75
2021/03/05 06:16:13;;;;;;;40.85;22.17;;;11.30;99.90;;;;;;6214300;23;20651;-76
2021/03/05 06:18:39;;;;;;;44.10;23.23;;;11.30;99.90;;;;;;6215095;23;20080;-76
2021/03/05 06:21:05;;;;;;;54.67;23.65;;;11.20;99.90;;;;;;6214678;23;20036;-76
2021/03/05 06:23:34;;;;;;;35.13;22.17;;;11.20;99.90;;;;;;6214723;23;20461;-76
2021/03/05 06:26:00;;;;;;;42.10;23.67;;;11.20;99.90;;;;;;6214265;23;20005;-77
2021/03/05 06:28:27;;;;;;;45.92;22.05;;;11.20;99.90;;;;;;6214283;23;20015;-74
2021/03/05 06:30:54;;;;;;;46.35;24.40;;;11.20;99.90;;;;;;6214461;23;20005;-76
2021/03/05 06:33:25;;;;;;;41.20;24.65;;;11.30;99.90;;;;;;6214079;23;20007;-75
2021/03/05 06:35:51;;;;;;;46.20;23.23;;;11.20;99.90;;;;;;6215215;23;20437;-74
2021/03/05 06:38:43;;;;;;;35.35;22.98;;;11.20;99.90;;;;;;6214707;23;19997;-77
2021/03/05 06:41:20;;;;;;;37.40;23.92;;;11.20;99.90;;;;;;6213133;23;20054;-75
2021/03/05 06:43:47;;;;;;;43.42;23.42;;;11.20;99.90;;;;;;6213712;23;20016;-76
2021/03/05 06:46:31;;;;;;;38.00;23.15;;;11.30;99.90;;;;;;6185701;23;20009;-75
2021/03/05 06:48:58;;;;;;;41.67;24.13;;;11.30;99.90;;;;;;6213515;23;20080;-76
2021/03/05 06:51:24;;;;;;;43.08;26.55;;;11.30;99.90;;;;;;6209387;23;20000;-76
2021/03/05 06:54:02;;;;;;;40.33;24.05;;;11.30;99.90;;;;;;6212540;23;20004;-76
2021/03/05 06:56:28;;;;;;;42.00;24.20;;;11.30;99.90;;;;;;6213643;23;20000;-75
2021/03/05 06:59:15;;;;;;;39.00;24.63;;;11.40;99.90;;;;;;6213766;23;20083;-75
2021/03/05 07:02:00;;;;;;;45.22;23.52;;;11.40;99.90;;;;;;6212227;23;20009;-76
2021/03/05 07:04:29;;;;;;;46.60;25.60;;;11.40;99.90;;;;;;6213509;23;20086;-76
2021/03/05 07:07:00;;;;;;;40.65;24.02;;;11.50;99.90;;;;;;6214076;23;20004;-76
2021/03/05 07:09:47;;;;;;;52.13;25.43;;;11.50;99.90;;;;;;6213146;23;20023;-77
2021/03/05 07:12:18;;;;;;;43.33;24.33;;;11.50;99.90;;;;;;6212578;23;20004;-75
2021/03/05 07:14:50;;;;;;;42.20;24.30;;;11.50;99.90;;;;;;6215216;23;20004;-75
2021/03/05 07:17:19;;;;;;;40.17;24.25;;;11.50;99.90;;;;;;6212846;23;20255;-75
2021/03/05 07:19:45;;;;;;;48.28;25.10;;;11.50;99.90;;;;;;6213104;23;20430;-74
2021/03/05 07:22:14;;;;;;;41.85;23.38;;;11.50;99.90;;;;;;6212403;23;20012;-75
2021/03/05 07:24:40;;;;;;;40.08;23.92;;;11.60;99.90;;;;;;6186827;23;20578;-74
2021/03/05 07:27:08;;;;;;;48.65;24.98;;;11.60;99.90;;;;;;6213740;23;20001;-74
2021/03/05 07:29:37;;;;;;;44.67;23.27;;;11.60;99.90;;;;;;6213405;23;20095;-74
2021/03/05 07:32:17;;;;;;;41.85;22.42;;;11.70;99.90;;;;;;6212789;23;20011;-74
2021/03/05 07:35:09;;;;;;;38.28;23.83;;;11.70;99.90;;;;;;6213567;23;20012;-74
2021/03/05 07:37:45;;;;;;;44.40;24.73;;;11.80;99.90;;;;;;6211802;23;20487;-74
2021/03/05 07:40:13;;;;;;;42.60;24.13;;;11.80;99.90;;;;;;6213125;23;20001;-74
2021/03/05 07:42:39;;;;;;;42.88;23.70;;;11.90;99.90;;;;;;6213556;23;20008;-75
2021/03/05 07:45:10;;;;;;;52.05;26.15;;;11.90;99.90;;;;;;6213526;23;20008;-75
2021/03/05 07:47:38;;;;;;;38.05;25.02;;;11.90;99.90;;;;;;6187055;23;20024;-75
2021/03/05 07:50:06;;;;;;;39.70;22.45;;;11.90;99.90;;;;;;6213393;23;20023;-75
2021/03/05 07:52:33;;;;;;;46.25;24.85;;;12.10;99.90;;;;;;6213087;23;20000;-76
2021/03/05 07:54:58;;;;;;;37.80;25.60;;;12.10;99.90;;;;;;6213481;23;20135;-75
2021/03/05 07:57:24;;;;;;;47.70;24.88;;;12.20;99.90;;;;;;6212997;23;20043;-75
2021/03/05 07:59:51;;;;;;;49.67;25.70;;;12.20;99.90;;;;;;6213279;23;20028;-76
2021/03/05 08:02:22;;;;;;;43.08;24.90;;;12.20;99.90;;;;;;6213037;23;20004;-75
2021/03/05 08:04:48;;;;;;;39.75;23.77;;;12.30;99.90;;;;;;6187255;23;20091;-74
2021/03/05 08:07:15;;;;;;;43.75;24.63;;;12.30;99.90;;;;;;6213658;23;20031;-75
2021/03/05 08:09:41;;;;;;;46.08;23.52;;;12.40;99.90;;;;;;6213338;23;20442;-75
2021/03/05 08:12:39;;;;;;;42.58;24.10;;;12.40;99.90;;;;;;6211213;23;20004;-75
2021/03/05 08:15:08;;;;;;;42.80;23.88;;;12.50;99.90;;;;;;6212001;23;20004;-75
2021/03/05 08:17:39;;;;;;;50.65;25.10;;;12.50;99.90;;;;;;6212965;23;20004;-75
2021/03/05 08:20:29;;;;;;;39.35;23.08;;;12.60;99.90;;;;;;6213123;23;20051;-75
2021/03/05 08:23:03;;;;;;;40.33;23.42;;;12.60;99.90;;;;;;6186913;23;20015;-75
2021/03/05 08:25:31;;;;;;;39.58;24.60;;;12.60;99.90;;;;;;6213195;23;19997;-75
2021/03/05 08:27:58;;;;;;;44.78;24.75;;;12.70;99.90;;;;;;6212671;23;20008;-75
2021/03/05 08:30:27;;;;;;;45.55;24.70;;;12.70;99.90;;;;;;6213218;23;20015;-75
2021/03/05 08:32:57;;;;;;;43.45;24.02;;;12.70;99.90;;;;;;6212262;23;20126;-75
2021/03/05 08:35:29;;;;;;;52.70;24.63;;;12.80;99.90;;;;;;6213367;23;20115;-75
2021/03/05 08:37:58;;;;;;;60.90;26.52;;;12.80;99.90;;;;;;6212215;23;20001;-75
2021/03/05 08:40:25;;;;;;;51.33;25.63;;;12.90;99.90;;;;;;6213790;23;20008;-75
2021/03/05 08:42:58;;;;;;;43.40;24.55;;;12.90;99.90;;;;;;6213132;23;20048;-75
2021/03/05 08:45:27;;;;;;;43.78;22.42;;;12.90;99.90;;;;;;6213497;23;20676;-75
2021/03/05 08:48:00;;;;;;;39.17;25.67;;;13.00;99.90;;;;;;6212596;23;20092;-75
2021/03/05 08:50:35;;;;;;;50.67;25.80;;;13.10;99.90;;;;;;6212978;23;20074;-75
2021/03/05 08:53:06;;;;;;;62.13;27.80;;;13.10;99.90;;;;;;6186901;23;20001;-76
2021/03/05 08:55:34;;;;;;;53.45;28.05;;;13.10;99.90;;;;;;6214026;23;20012;-76
2021/03/05 08:58:00;;;;;;;49.75;27.60;;;13.20;99.90;;;;;;6214585;23;20163;-76
2021/03/05 09:00:30;;;;;;;45.97;25.67;;;13.10;99.90;;;;;;6215036;23;20004;-76
2021/03/05 09:03:05;;;;;;;51.45;26.60;;;13.10;99.90;;;;;;6212477;23;20000;-75
2021/03/05 09:05:35;;;;;;;55.47;27.05;;;13.20;99.90;;;;;;6215105;23;20015;-75
2021/03/05 09:08:02;;;;;;;45.13;25.15;;;13.20;99.90;;;;;;6215364;23;20011;-75
2021/03/05 09:10:47;;;;;;;48.78;25.55;;;13.20;99.90;;;;;;6215203;23;20008;-75
2021/03/05 09:13:15;;;;;;;49.90;24.30;;;13.30;99.90;;;;;;6188362;23;20308;-76
2021/03/05 09:15:44;;;;;;;47.63;25.23;;;13.30;99.90;;;;;;6214983;23;20007;-75
2021/03/05 09:18:16;;;;;;;45.90;25.70;;;13.40;99.90;;;;;;6214583;23;20004;-76
2021/03/05 09:20:44;;;;;;;47.75;25.85;;;13.40;99.90;;;;;;6215986;23;20036;-76
2021/03/05 09:23:26;;;;;;;39.97;24.45;;;13.40;99.90;;;;;;6215685;23;20028;-74
2021/03/05 09:25:54;;;;;;;51.92;26.23;;;13.40;99.90;;;;;;6213805;23;20419;-75
2021/03/05 09:28:23;;;;;;;54.72;25.95;;;13.50;99.90;;;;;;6213288;23;20047;-73
2021/03/05 09:30:56;;;;;;;47.80;25.75;;;13.50;99.90;;;;;;6213902;23;20009;-74
2021/03/05 09:33:30;;;;;;;43.70;24.67;;;13.40;99.90;;;;;;6214750;23;20001;-74
2021/03/05 09:36:13;;;;;;;57.22;23.67;;;13.40;99.90;;;;;;6214756;23;20012;-74
2021/03/05 09:38:40;;;;;;;61.25;29.65;;;13.40;99.90;;;;;;6215142;23;20008;-74
2021/03/05 09:41:15;;;;;;;51.17;27.35;;;13.50;99.90;;;;;;6215191;23;20004;-73
2021/03/05 09:43:42;;;;;;;46.60;27.85;;;13.70;99.90;;;;;;6215012;23;20059;-73
2021/03/05 09:46:20;;;;;;;59.67;27.45;;;13.90;99.90;;;;;;6215067;23;20004;-74
2021/03/05 09:48:46;;;;;;;52.05;27.13;;;14.10;99.90;;;;;;6213300;23;20013;-74
2021/03/05 09:51:12;;;;;;;48.33;28.88;;;14.30;99.90;;;;;;6214701;23;20076;-74
2021/03/05 09:53:47;;;;;;;55.45;29.52;;;14.40;99.90;;;;;;6214928;23;20027;-74
2021/03/05 09:56:12;;;;;;;57.47;29.60;;;14.50;99.90;;;;;;6215047;23;20008;-74
2021/03/05 09:58:57;;;;;;;51.97;28.70;;;14.60;99.90;;;;;;6214680;23;20001;-74
2021/03/05 10:01:24;;;;;;;45.70;28.70;;;14.60;99.90;;;;;;6215006;23;19997;-76
2021/03/05 10:03:55;;;;;;;51.03;30.75;;;14.50;99.90;;;;;;6214285;23;20509;-74
2021/03/05 10:06:21;;;;;;;57.10;30.02;;;14.40;99.90;;;;;;6214688;23;20004;-74
2021/03/05 10:08:46;;;;;;;51.78;30.58;;;14.40;99.90;;;;;;6213977;23;20055;-74
2021/03/05 10:11:14;;;;;;;50.88;31.85;;;14.30;99.90;;;;;;6213960;23;20008;-74
2021/03/05 10:13:49;;;;;;;54.47;33.03;;;14.30;99.90;;;;;;6214757;23;20000;-74
2021/03/05 10:16:15;;;;;;;61.17;32.85;;;14.20;99.90;;;;;;6214877;23;20008;-74
2021/03/05 10:18:43;;;;;;;61.28;32.10;;;14.10;99.90;;;;;;6214468;23;20012;-75
2021/03/05 10:21:14;;;;;;;55.25;30.15;;;14.00;99.90;;;;;;6179816;23;20060;-75
2021/03/05 10:23:41;;;;;;;53.47;32.78;;;14.00;99.90;;;;;;6214446;23;20028;-74
2021/03/05 10:26:18;;;;;;;58.42;36.20;;;14.00;99.90;;;;;;6214982;23;20005;-75
2021/03/05 10:28:46;;;;;;;63.17;36.03;;;14.00;99.90;;;;;;6215204;23;20005;-74
2021/03/05 10:31:12;;;;;;;59.05;35.00;;;14.00;99.90;;;;;;6214832;23;20013;-73
2021/03/05 10:33:43;;;;;;;67.68;36.20;;;14.10;99.90;;;;;;6206153;23;20494;-74
2021/03/05 10:36:11;;;;;;;61.50;36.43;;;14.10;99.90;;;;;;6213534;23;20075;-73
2021/03/05 10:38:37;;;;;;;64.25;35.15;;;14.10;99.90;;;;;;6213691;23;20263;-74
2021/03/05 10:41:04;;;;;;;57.97;34.95;;;14.30;99.90;;;;;;6214106;23;20004;-74
2021/03/05 10:43:30;;;;;;;69.00;36.88;;;14.30;99.90;;;;;;6213719;23;20008;-74
2021/03/05 10:45:56;;;;;;;68.72;38.08;;;14.30;99.90;;;;;;6214429;23;20026;-74
2021/03/05 10:48:21;;;;;;;63.58;38.45;;;14.30;99.90;;;;;;6214289;23;20004;-74
2021/03/05 10:50:47;;;;;;;64.18;36.13;;;14.30;99.90;;;;;;6213841;23;20008;-74
2021/03/05 10:53:13;;;;;;;71.15;35.75;;;14.30;99.90;;;;;;6214383;23;20080;-74
2021/03/05 10:55:39;;;;;;;64.70;34.00;;;14.40;99.90;;;;;;6212185;23;20008;-74
2021/03/05 10:58:04;;;;;;;63.88;35.90;;;14.40;99.90;;;;;;6214010;23;20023;-74
2021/03/05 11:00:30;;;;;;;70.65;39.15;;;14.50;99.90;;;;;;6214009;23;20004;-74
2021/03/05 11:02:57;;;;;;;70.97;36.47;;;14.30;99.90;;;;;;6214247;23;20098;-73
2021/03/05 11:05:23;;;;;;;63.95;36.58;;;14.50;99.90;;;;;;6213720;23;20381;-74
2021/03/05 11:07:49;;;;;;;64.50;35.60;;;14.60;99.90;;;;;;6213959;23;20000;-72
2021/03/05 11:10:15;;;;;;;55.95;35.47;;;14.60;99.90;;;;;;6187530;23;20012;-74
2021/03/05 11:12:41;;;;;;;70.38;35.83;;;14.70;99.90;;;;;;6213457;23;20000;-74
2021/03/05 11:15:07;;;;;;;64.53;36.95;;;14.70;99.90;;;;;;6214177;23;20004;-74
2021/03/05 11:17:33;;;;;;;69.88;36.92;;;14.70;99.90;;;;;;6213731;23;20080;-74
2021/03/05 11:19:59;;;;;;;62.65;37.85;;;14.70;99.90;;;;;;6214005;23;20032;-75
2021/03/05 11:22:25;;;;;;;63.33;40.70;;;14.70;99.90;;;;;;6213393;23;20001;-74
2021/03/05 11:24:51;;;;;;;73.85;38.33;;;14.70;99.90;;;;;;6213667;23;20080;-73
2021/03/05 11:27:17;;;;;;;71.28;40.17;;;14.70;99.90;;;;;;6211276;23;19992;-73
2021/03/05 11:29:43;;;;;;;71.88;39.42;;;14.70;99.90;;;;;;6210884;23;20013;-74
2021/03/05 11:32:08;;;;;;;81.82;41.80;;;14.80;99.90;;;;;;6212534;23;20001;-73
2021/03/05 11:34:35;;;;;;;80.93;42.45;;;14.70;99.90;;;;;;6187550;23;20005;-75
2021/03/05 11:37:01;;;;;;;75.28;41.80;;;14.80;99.90;;;;;;6214121;23;20054;-75
2021/03/05 11:39:27;;;;;;;78.68;42.50;;;14.80;99.90;;;;;;6212681;23;20084;-75
2021/03/05 11:41:54;;;;;;;84.22;43.53;;;14.80;99.90;;;;;;6212535;23;19997;-74
2021/03/05 11:44:20;;;;;;;71.13;41.33;;;14.80;99.90;;;;;;6211877;23;20027;-75
2021/03/05 11:46:46;;;;;;;79.60;42.00;;;14.90;99.90;;;;;;6212814;23;20374;-76
2021/03/05 11:49:13;;;;;;;83.60;41.35;;;14.90;99.90;;;;;;6212436;23;20012;-76
2021/03/05 11:51:39;;;;;;;68.75;40.08;;;14.90;99.90;;;;;;6211478;23;20000;-75
2021/03/05 11:54:06;;;;;;;69.40;40.65;;;14.90;99.90;;;;;;6212194;23;20005;-76
2021/03/05 11:56:31;;;;;;;73.72;37.65;;;14.90;99.90;;;;;;6212811;23;20024;-75
2021/03/05 11:58:57;;;;;;;73.93;37.58;;;14.90;99.90;;;;;;6213092;23;20020;-76
2021/03/05 12:01:23;;;;;;;78.20;38.17;;;14.80;99.90;;;;;;6213321;23;20331;-75
2021/03/05 12:03:48;;;;;;;77.10;39.60;;;14.80;99.90;;;;;;6213882;23;20453;-76
2021/03/05 12:06:14;;;;;;;66.78;37.63;;;14.80;99.90;;;;;;6212935;23;20004;-76
2021/03/05 12:08:40;;;;;;;51.63;35.42;;;14.70;99.90;;;;;;6213444;23;20494;-76
2021/03/05 12:11:05;;;;;;;67.50;40.80;;;14.70;99.90;;;;;;6213783;23;20008;-76
2021/03/05 12:13:31;;;;;;;67.07;40.47;;;14.70;99.90;;;;;;6213523;23;19996;-77
2021/03/05 12:15:57;;;;;;;61.92;40.08;;;14.70;99.90;;;;;;6213405;23;20035;-76
2021/03/05 12:18:22;;;;;;;64.43;41.67;;;14.60;99.90;;;;;;6213172;23;20001;-76
2021/03/05 12:20:48;;;;;;;72.90;40.83;;;14.70;99.90;;;;;;6213746;23;20430;-76
2021/03/05 12:23:14;;;;;;;63.42;40.15;;;14.80;99.90;;;;;;6214120;23;20001;-77
2021/03/05 12:25:39;;;;;;;70.80;42.78;;;14.80;99.90;;;;;;6213026;23;20433;-76
2021/03/05 12:28:05;;;;;;;76.07;44.08;;;14.80;99.90;;;;;;6214920;23;20004;-76
2021/03/05 12:30:31;;;;;;;67.57;41.30;;;14.90;99.90;;;;;;6215628;23;20426;-76
2021/03/05 12:32:57;;;;;;;76.40;41.47;;;15.00;99.90;;;;;;6215650;23;20011;-76
2021/03/05 12:35:23;;;;;;;74.60;41.95;;;15.10;99.90;;;;;;6215191;23;19997;-76